Missouri River (Missouri), Kansas City (06893000)

StateMissouriLatestUnknown (38600 cfs)
RiverMissouri RiverRatingObservedEstimated
Updated2022-09-25 20:30 (50 minutes ago)Flood - The river is flooding. Obstacles can be treacherous or deadly. The river should be avoided at this stage for casual trips and definitely for the inexperienced. Trips should be attempted only with protective gear and equipment.Flood(none)(none)
Discharge38600 cfs (median: 52600 cfs)High - The river is high and potentially dangerous, especially for the young and / or inexperienced. Normal stream obstacles are sometimes difficult to navigate. Extended distances can be attempted, but canoe travel may not be advisable.High(none)(none)
Height8.56 feetGood - Conditions are ideal for a canoe or kayak. Boats typically will drag on fewer than one-quarter of riffles, if at all, and portages are unnecessary or rare. Normal float lengths can be attempted without a problem.Good(none)(none)
TrendSteady (steady over 24 hours)Low - River is low but can still be floated. Some riffles are okay but most come with significant dragging and might need a portage. Float lengths should be reduced to accommodate low flow, dragging, and portages.Low(none)(none)
USGSExternal icon USGS Site (External icon Duck Duck Go Maps)Poor - River is too low to float comfortably. Most or all riffles will drag or must be portaged and some obstacles (such as slick shelf rock) cause undue problems. Avoid the river at this stage for casual paddling trips.Poor(none)(none)

Trending Data

Plot Image

Trips for Missouri River (Missouri), Kansas City (06893000)

DateStartEndDistanceConditionDischargeHeightFishingDetails

A total of 0 rows are displayed.

Condition Descriptions

Fishing Conditions

Fish Species

Notes

Classic Trip List

The classic River Trips application is still available for use. It is updated with the new system using a data retrofit. It is no longer maintained. The original River Trips application is no longer updated (as of 1 Dec 2016) but can be checked for errors or for the condition of the data before it was converted to the new system.

Gauge Data Table

ObservationHeightDischargeMaximum
Discharge
Minimum
Discharge
Mean
Discharge
P05P10P20P25P50
(Median)
P75P80P90P95
2022-09-25 20:30 8.56 38600 186000 (1993) 33400 (1991) 62900 35300 38400 41100 42000 52600 71200 80100 106000 122000
2022-09-25 19:30 8.56 38600 186000 (1993) 33400 (1991) 62900 35300 38400 41100 42000 52600 71200 80100 106000 122000
2022-09-25 18:30 8.57 38600 186000 (1993) 33400 (1991) 62900 35300 38400 41100 42000 52600 71200 80100 106000 122000
2022-09-25 17:30 8.58 38700 186000 (1993) 33400 (1991) 62900 35300 38400 41100 42000 52600 71200 80100 106000 122000
2022-09-25 16:30 8.58 38700 186000 (1993) 33400 (1991) 62900 35300 38400 41100 42000 52600 71200 80100 106000 122000
2022-09-25 15:30 8.58 38700 186000 (1993) 33400 (1991) 62900 35300 38400 41100 42000 52600 71200 80100 106000 122000
2022-09-25 14:30 8.60 38800 186000 (1993) 33400 (1991) 62900 35300 38400 41100 42000 52600 71200 80100 106000 122000
2022-09-25 13:30 8.59 38700 186000 (1993) 33400 (1991) 62900 35300 38400 41100 42000 52600 71200 80100 106000 122000
2022-09-25 12:30 8.56 38600 186000 (1993) 33400 (1991) 62900 35300 38400 41100 42000 52600 71200 80100 106000 122000
2022-09-25 11:30 8.58 38700 186000 (1993) 33400 (1991) 62900 35300 38400 41100 42000 52600 71200 80100 106000 122000
2022-09-25 10:30 8.57 38600 186000 (1993) 33400 (1991) 62900 35300 38400 41100 42000 52600 71200 80100 106000 122000
2022-09-25 09:30 8.59 38700 186000 (1993) 33400 (1991) 62900 35300 38400 41100 42000 52600 71200 80100 106000 122000
2022-09-25 08:30 8.58 38700 186000 (1993) 33400 (1991) 62900 35300 38400 41100 42000 52600 71200 80100 106000 122000
2022-09-25 07:30 8.58 38700 186000 (1993) 33400 (1991) 62900 35300 38400 41100 42000 52600 71200 80100 106000 122000
2022-09-25 06:30 8.57 38600 186000 (1993) 33400 (1991) 62900 35300 38400 41100 42000 52600 71200 80100 106000 122000
2022-09-25 05:30 8.57 38600 186000 (1993) 33400 (1991) 62900 35300 38400 41100 42000 52600 71200 80100 106000 122000
2022-09-25 04:30 8.60 38800 186000 (1993) 33400 (1991) 62900 35300 38400 41100 42000 52600 71200 80100 106000 122000
2022-09-25 03:30 8.58 38700 186000 (1993) 33400 (1991) 62900 35300 38400 41100 42000 52600 71200 80100 106000 122000
2022-09-25 02:30 8.58 38700 186000 (1993) 33400 (1991) 62900 35300 38400 41100 42000 52600 71200 80100 106000 122000
2022-09-25 01:30 8.59 38700 186000 (1993) 33400 (1991) 62900 35300 38400 41100 42000 52600 71200 80100 106000 122000
2022-09-25 00:30 8.58 38700 186000 (1993) 33400 (1991) 62900 35300 38400 41100 42000 52600 71200 80100 106000 122000
2022-09-24 23:30 8.57 38600 159000 (1993) 33900 (1991) 62300 35900 37800 40400 41100 53100 70800 75500 99200 149000
2022-09-24 22:30 8.57 38600 159000 (1993) 33900 (1991) 62300 35900 37800 40400 41100 53100 70800 75500 99200 149000
2022-09-24 21:30 8.56 38600 159000 (1993) 33900 (1991) 62300 35900 37800 40400 41100 53100 70800 75500 99200 149000
2022-09-24 20:30 8.58 38700 159000 (1993) 33900 (1991) 62300 35900 37800 40400 41100 53100 70800 75500 99200 149000
2022-09-24 19:30 8.56 38600 159000 (1993) 33900 (1991) 62300 35900 37800 40400 41100 53100 70800 75500 99200 149000
2022-09-24 18:30 8.54 38500 159000 (1993) 33900 (1991) 62300 35900 37800 40400 41100 53100 70800 75500 99200 149000
2022-09-24 17:30 8.55 38500 159000 (1993) 33900 (1991) 62300 35900 37800 40400 41100 53100 70800 75500 99200 149000
2022-09-24 16:30 8.56 38600 159000 (1993) 33900 (1991) 62300 35900 37800 40400 41100 53100 70800 75500 99200 149000
2022-09-24 15:30 8.55 38500 159000 (1993) 33900 (1991) 62300 35900 37800 40400 41100 53100 70800 75500 99200 149000
2022-09-24 14:30 8.55 38500 159000 (1993) 33900 (1991) 62300 35900 37800 40400 41100 53100 70800 75500 99200 149000
2022-09-24 13:30 8.53 38400 159000 (1993) 33900 (1991) 62300 35900 37800 40400 41100 53100 70800 75500 99200 149000
2022-09-24 12:30 8.54 38500 159000 (1993) 33900 (1991) 62300 35900 37800 40400 41100 53100 70800 75500 99200 149000
2022-09-24 11:30 8.53 38400 159000 (1993) 33900 (1991) 62300 35900 37800 40400 41100 53100 70800 75500 99200 149000
2022-09-24 10:30 8.54 38500 159000 (1993) 33900 (1991) 62300 35900 37800 40400 41100 53100 70800 75500 99200 149000
2022-09-24 09:30 8.54 38500 159000 (1993) 33900 (1991) 62300 35900 37800 40400 41100 53100 70800 75500 99200 149000
2022-09-24 08:30 8.53 38400 159000 (1993) 33900 (1991) 62300 35900 37800 40400 41100 53100 70800 75500 99200 149000
2022-09-24 07:30 8.55 38500 159000 (1993) 33900 (1991) 62300 35900 37800 40400 41100 53100 70800 75500 99200 149000
2022-09-24 06:30 8.53 38400 159000 (1993) 33900 (1991) 62300 35900 37800 40400 41100 53100 70800 75500 99200 149000
2022-09-24 05:30 8.54 38500 159000 (1993) 33900 (1991) 62300 35900 37800 40400 41100 53100 70800 75500 99200 149000
2022-09-24 04:30 8.55 38500 159000 (1993) 33900 (1991) 62300 35900 37800 40400 41100 53100 70800 75500 99200 149000
2022-09-24 03:30 8.56 38600 159000 (1993) 33900 (1991) 62300 35900 37800 40400 41100 53100 70800 75500 99200 149000
2022-09-24 02:30 8.56 38600 159000 (1993) 33900 (1991) 62300 35900 37800 40400 41100 53100 70800 75500 99200 149000
2022-09-24 01:30 8.56 38600 159000 (1993) 33900 (1991) 62300 35900 37800 40400 41100 53100 70800 75500 99200 149000
2022-09-24 00:30 8.57 38600 159000 (1993) 33900 (1991) 62300 35900 37800 40400 41100 53100 70800 75500 99200 149000
2022-09-23 23:30 8.31 37400 183000 (1965) 34100 (1991) 62000 35900 38300 40700 41100 49300 72400 74500 98800 148000
2022-09-23 22:30 8.55 38500 183000 (1965) 34100 (1991) 62000 35900 38300 40700 41100 49300 72400 74500 98800 148000
2022-09-23 21:30 8.55 38500 183000 (1965) 34100 (1991) 62000 35900 38300 40700 41100 49300 72400 74500 98800 148000
2022-09-23 20:30 8.56 38600 183000 (1965) 34100 (1991) 62000 35900 38300 40700 41100 49300 72400 74500 98800 148000
2022-09-23 19:30 8.55 38500 183000 (1965) 34100 (1991) 62000 35900 38300 40700 41100 49300 72400 74500 98800 148000
2022-09-23 18:30 8.55 38500 183000 (1965) 34100 (1991) 62000 35900 38300 40700 41100 49300 72400 74500 98800 148000
2022-09-23 17:30 8.56 38600 183000 (1965) 34100 (1991) 62000 35900 38300 40700 41100 49300 72400 74500 98800 148000
2022-09-23 16:30 8.57 38600 183000 (1965) 34100 (1991) 62000 35900 38300 40700 41100 49300 72400 74500 98800 148000
2022-09-23 15:30 8.56 38600 183000 (1965) 34100 (1991) 62000 35900 38300 40700 41100 49300 72400 74500 98800 148000
2022-09-23 14:30 8.58 38700 183000 (1965) 34100 (1991) 62000 35900 38300 40700 41100 49300 72400 74500 98800 148000
2022-09-23 13:30 8.59 38700 183000 (1965) 34100 (1991) 62000 35900 38300 40700 41100 49300 72400 74500 98800 148000
2022-09-23 12:30 8.59 38700 183000 (1965) 34100 (1991) 62000 35900 38300 40700 41100 49300 72400 74500 98800 148000
2022-09-23 11:30 8.60 38800 183000 (1965) 34100 (1991) 62000 35900 38300 40700 41100 49300 72400 74500 98800 148000
2022-09-23 10:30 8.60 38800 183000 (1965) 34100 (1991) 62000 35900 38300 40700 41100 49300 72400 74500 98800 148000
2022-09-23 09:30 8.60 38800 183000 (1965) 34100 (1991) 62000 35900 38300 40700 41100 49300 72400 74500 98800 148000
2022-09-23 08:30 8.62 38800 183000 (1965) 34100 (1991) 62000 35900 38300 40700 41100 49300 72400 74500 98800 148000
2022-09-23 07:30 8.63 38900 183000 (1965) 34100 (1991) 62000 35900 38300 40700 41100 49300 72400 74500 98800 148000
2022-09-23 06:30 8.65 39000 183000 (1965) 34100 (1991) 62000 35900 38300 40700 41100 49300 72400 74500 98800 148000
2022-09-23 05:30 8.64 38900 183000 (1965) 34100 (1991) 62000 35900 38300 40700 41100 49300 72400 74500 98800 148000
2022-09-23 04:30 8.67 39100 183000 (1965) 34100 (1991) 62000 35900 38300 40700 41100 49300 72400 74500 98800 148000
2022-09-23 03:30 8.68 39100 183000 (1965) 34100 (1991) 62000 35900 38300 40700 41100 49300 72400 74500 98800 148000
2022-09-23 02:30 8.69 39200 183000 (1965) 34100 (1991) 62000 35900 38300 40700 41100 49300 72400 74500 98800 148000
2022-09-23 01:30 8.68 39100 183000 (1965) 34100 (1991) 62000 35900 38300 40700 41100 49300 72400 74500 98800 148000
2022-09-23 00:30 8.69 39200 183000 (1965) 34100 (1991) 62000 35900 38300 40700 41100 49300 72400 74500 98800 148000
2022-09-22 23:30 8.70 39200 198000 (1965) 34400 (1991) 60500 36400 37900 40400 40800 50400 70800 74100 105000 119000
2022-09-22 22:30 8.70 39200 198000 (1965) 34400 (1991) 60500 36400 37900 40400 40800 50400 70800 74100 105000 119000
2022-09-22 21:30 8.70 39200 198000 (1965) 34400 (1991) 60500 36400 37900 40400 40800 50400 70800 74100 105000 119000
2022-09-22 20:30 8.70 39200 198000 (1965) 34400 (1991) 60500 36400 37900 40400 40800 50400 70800 74100 105000 119000
2022-09-22 19:30 8.69 39200 198000 (1965) 34400 (1991) 60500 36400 37900 40400 40800 50400 70800 74100 105000 119000
2022-09-22 18:30 8.68 39100 198000 (1965) 34400 (1991) 60500 36400 37900 40400 40800 50400 70800 74100 105000 119000
2022-09-22 17:30 8.70 39200 198000 (1965) 34400 (1991) 60500 36400 37900 40400 40800 50400 70800 74100 105000 119000
2022-09-22 16:30 8.70 39200 198000 (1965) 34400 (1991) 60500 36400 37900 40400 40800 50400 70800 74100 105000 119000
2022-09-22 15:30 8.70 39200 198000 (1965) 34400 (1991) 60500 36400 37900 40400 40800 50400 70800 74100 105000 119000
2022-09-22 14:30 8.68 39100 198000 (1965) 34400 (1991) 60500 36400 37900 40400 40800 50400 70800 74100 105000 119000
2022-09-22 13:30 8.69 39200 198000 (1965) 34400 (1991) 60500 36400 37900 40400 40800 50400 70800 74100 105000 119000
2022-09-22 12:30 8.68 39100 198000 (1965) 34400 (1991) 60500 36400 37900 40400 40800 50400 70800 74100 105000 119000
2022-09-22 11:30 8.68 39100 198000 (1965) 34400 (1991) 60500 36400 37900 40400 40800 50400 70800 74100 105000 119000
2022-09-22 10:30 8.68 39100 198000 (1965) 34400 (1991) 60500 36400 37900 40400 40800 50400 70800 74100 105000 119000
2022-09-22 09:30 8.66 39000 198000 (1965) 34400 (1991) 60500 36400 37900 40400 40800 50400 70800 74100 105000 119000
2022-09-22 08:30 8.65 39000 198000 (1965) 34400 (1991) 60500 36400 37900 40400 40800 50400 70800 74100 105000 119000
2022-09-22 07:30 8.66 39000 198000 (1965) 34400 (1991) 60500 36400 37900 40400 40800 50400 70800 74100 105000 119000
2022-09-22 06:30 8.66 39000 198000 (1965) 34400 (1991) 60500 36400 37900 40400 40800 50400 70800 74100 105000 119000
2022-09-22 05:30 8.66 39000 198000 (1965) 34400 (1991) 60500 36400 37900 40400 40800 50400 70800 74100 105000 119000
2022-09-22 04:30 8.65 39000 198000 (1965) 34400 (1991) 60500 36400 37900 40400 40800 50400 70800 74100 105000 119000
2022-09-22 03:30 8.64 38900 198000 (1965) 34400 (1991) 60500 36400 37900 40400 40800 50400 70800 74100 105000 119000
2022-09-22 02:30 8.62 38800 198000 (1965) 34400 (1991) 60500 36400 37900 40400 40800 50400 70800 74100 105000 119000
2022-09-22 01:30 8.62 38800 198000 (1965) 34400 (1991) 60500 36400 37900 40400 40800 50400 70800 74100 105000 119000
2022-09-22 00:30 8.60 38800 198000 (1965) 34400 (1991) 60500 36400 37900 40400 40800 50400 70800 74100 105000 119000
2022-09-21 23:30 8.59 38700 151000 (1965) 34700 (1991) 59300 36400 38500 39800 40800 49100 69400 74700 102000 120000
2022-09-21 22:30 8.58 38700 151000 (1965) 34700 (1991) 59300 36400 38500 39800 40800 49100 69400 74700 102000 120000
2022-09-21 21:30 8.61 38800 151000 (1965) 34700 (1991) 59300 36400 38500 39800 40800 49100 69400 74700 102000 120000
2022-09-21 20:30 8.59 38700 151000 (1965) 34700 (1991) 59300 36400 38500 39800 40800 49100 69400 74700 102000 120000
2022-09-21 19:30 8.58 38700 151000 (1965) 34700 (1991) 59300 36400 38500 39800 40800 49100 69400 74700 102000 120000
2022-09-21 18:30 8.59 38700 151000 (1965) 34700 (1991) 59300 36400 38500 39800 40800 49100 69400 74700 102000 120000
2022-09-21 17:30 8.57 38600 151000 (1965) 34700 (1991) 59300 36400 38500 39800 40800 49100 69400 74700 102000 120000
2022-09-21 16:30 8.57 38600 151000 (1965) 34700 (1991) 59300 36400 38500 39800 40800 49100 69400 74700 102000 120000
2022-09-21 15:30 8.56 38600 151000 (1965) 34700 (1991) 59300 36400 38500 39800 40800 49100 69400 74700 102000 120000
2022-09-21 14:30 8.56 38600 151000 (1965) 34700 (1991) 59300 36400 38500 39800 40800 49100 69400 74700 102000 120000
2022-09-21 13:30 8.59 38700 151000 (1965) 34700 (1991) 59300 36400 38500 39800 40800 49100 69400 74700 102000 120000
2022-09-21 12:30 8.58 38700 151000 (1965) 34700 (1991) 59300 36400 38500 39800 40800 49100 69400 74700 102000 120000
2022-09-21 11:30 8.57 38600 151000 (1965) 34700 (1991) 59300 36400 38500 39800 40800 49100 69400 74700 102000 120000
2022-09-21 10:30 8.56 38600 151000 (1965) 34700 (1991) 59300 36400 38500 39800 40800 49100 69400 74700 102000 120000
2022-09-21 09:30 8.56 38600 151000 (1965) 34700 (1991) 59300 36400 38500 39800 40800 49100 69400 74700 102000 120000
2022-09-21 08:30 8.56 38600 151000 (1965) 34700 (1991) 59300 36400 38500 39800 40800 49100 69400 74700 102000 120000
2022-09-21 07:30 8.56 38600 151000 (1965) 34700 (1991) 59300 36400 38500 39800 40800 49100 69400 74700 102000 120000
2022-09-21 06:30 8.57 38600 151000 (1965) 34700 (1991) 59300 36400 38500 39800 40800 49100 69400 74700 102000 120000
2022-09-21 05:30 8.55 38500 151000 (1965) 34700 (1991) 59300 36400 38500 39800 40800 49100 69400 74700 102000 120000
2022-09-21 04:30 8.54 38500 151000 (1965) 34700 (1991) 59300 36400 38500 39800 40800 49100 69400 74700 102000 120000
2022-09-21 03:30 8.55 38500 151000 (1965) 34700 (1991) 59300 36400 38500 39800 40800 49100 69400 74700 102000 120000
2022-09-21 02:30 8.56 38600 151000 (1965) 34700 (1991) 59300 36400 38500 39800 40800 49100 69400 74700 102000 120000
2022-09-21 01:30 8.55 38500 151000 (1965) 34700 (1991) 59300 36400 38500 39800 40800 49100 69400 74700 102000 120000
2022-09-21 00:30 8.55 38500 151000 (1965) 34700 (1991) 59300 36400 38500 39800 40800 49100 69400 74700 102000 120000
2022-09-20 23:30 8.54 38500 137000 (2019) 34500 (1991) 58300 36500 38100 40200 41600 50100 70600 72000 92200 114000
2022-09-20 22:30 8.55 38500 137000 (2019) 34500 (1991) 58300 36500 38100 40200 41600 50100 70600 72000 92200 114000
2022-09-20 21:30 8.55 38500 137000 (2019) 34500 (1991) 58300 36500 38100 40200 41600 50100 70600 72000 92200 114000
2022-09-20 20:30 8.53 38400 137000 (2019) 34500 (1991) 58300 36500 38100 40200 41600 50100 70600 72000 92200 114000
2022-09-20 19:30 8.54 38500 137000 (2019) 34500 (1991) 58300 36500 38100 40200 41600 50100 70600 72000 92200 114000
2022-09-20 18:30 8.52 38400 137000 (2019) 34500 (1991) 58300 36500 38100 40200 41600 50100 70600 72000 92200 114000
2022-09-20 17:30 8.52 38400 137000 (2019) 34500 (1991) 58300 36500 38100 40200 41600 50100 70600 72000 92200 114000
2022-09-20 16:30 8.52 38400 137000 (2019) 34500 (1991) 58300 36500 38100 40200 41600 50100 70600 72000 92200 114000
2022-09-20 15:30 8.50 38300 137000 (2019) 34500 (1991) 58300 36500 38100 40200 41600 50100 70600 72000 92200 114000
2022-09-20 14:30 8.48 38200 137000 (2019) 34500 (1991) 58300 36500 38100 40200 41600 50100 70600 72000 92200 114000
2022-09-20 13:30 8.50 38300 137000 (2019) 34500 (1991) 58300 36500 38100 40200 41600 50100 70600 72000 92200 114000
2022-09-20 12:30 8.50 38300 137000 (2019) 34500 (1991) 58300 36500 38100 40200 41600 50100 70600 72000 92200 114000
2022-09-20 11:30 8.49 38200 137000 (2019) 34500 (1991) 58300 36500 38100 40200 41600 50100 70600 72000 92200 114000
2022-09-20 10:30 8.49 38200 137000 (2019) 34500 (1991) 58300 36500 38100 40200 41600 50100 70600 72000 92200 114000
2022-09-20 09:30 8.50 38300 137000 (2019) 34500 (1991) 58300 36500 38100 40200 41600 50100 70600 72000 92200 114000
2022-09-20 08:30 8.49 38200 137000 (2019) 34500 (1991) 58300 36500 38100 40200 41600 50100 70600 72000 92200 114000
2022-09-20 07:30 8.51 38300 137000 (2019) 34500 (1991) 58300 36500 38100 40200 41600 50100 70600 72000 92200 114000
2022-09-20 06:30 8.51 38300 137000 (2019) 34500 (1991) 58300 36500 38100 40200 41600 50100 70600 72000 92200 114000
2022-09-20 05:30 8.48 38200 137000 (2019) 34500 (1991) 58300 36500 38100 40200 41600 50100 70600 72000 92200 114000
2022-09-20 04:30 8.49 38200 137000 (2019) 34500 (1991) 58300 36500 38100 40200 41600 50100 70600 72000 92200 114000
2022-09-20 03:30 8.48 38200 137000 (2019) 34500 (1991) 58300 36500 38100 40200 41600 50100 70600 72000 92200 114000
2022-09-20 02:30 8.49 38200 137000 (2019) 34500 (1991) 58300 36500 38100 40200 41600 50100 70600 72000 92200 114000
2022-09-20 01:30 8.47 38100 137000 (2019) 34500 (1991) 58300 36500 38100 40200 41600 50100 70600 72000 92200 114000
2022-09-20 00:30 8.45 38100 137000 (2019) 34500 (1991) 58300 36500 38100 40200 41600 50100 70600 72000 92200 114000
2022-09-19 23:30 8.45 38100 134000 (2019) 34800 (1991) 57900 36700 37800 40100 41100 49600 69800 76100 87700 102000
2022-09-19 22:30 8.44 38000 134000 (2019) 34800 (1991) 57900 36700 37800 40100 41100 49600 69800 76100 87700 102000
2022-09-19 21:30 8.45 38100 134000 (2019) 34800 (1991) 57900 36700 37800 40100 41100 49600 69800 76100 87700 102000
2022-09-19 20:30 8.43 38000 134000 (2019) 34800 (1991) 57900 36700 37800 40100 41100 49600 69800 76100 87700 102000
2022-09-19 19:30 8.41 37900 134000 (2019) 34800 (1991) 57900 36700 37800 40100 41100 49600 69800 76100 87700 102000
2022-09-19 18:30 8.40 37800 134000 (2019) 34800 (1991) 57900 36700 37800 40100 41100 49600 69800 76100 87700 102000
2022-09-19 17:30 8.42 37900 134000 (2019) 34800 (1991) 57900 36700 37800 40100 41100 49600 69800 76100 87700 102000
2022-09-19 16:30 8.41 37900 134000 (2019) 34800 (1991) 57900 36700 37800 40100 41100 49600 69800 76100 87700 102000
2022-09-19 15:30 8.41 37900 134000 (2019) 34800 (1991) 57900 36700 37800 40100 41100 49600 69800 76100 87700 102000
2022-09-19 14:30 8.41 37900 134000 (2019) 34800 (1991) 57900 36700 37800 40100 41100 49600 69800 76100 87700 102000
2022-09-19 13:30 8.39 37800 134000 (2019) 34800 (1991) 57900 36700 37800 40100 41100 49600 69800 76100 87700 102000
2022-09-19 12:30 8.41 37900 134000 (2019) 34800 (1991) 57900 36700 37800 40100 41100 49600 69800 76100 87700 102000
2022-09-19 11:30 8.38 37700 134000 (2019) 34800 (1991) 57900 36700 37800 40100 41100 49600 69800 76100 87700 102000
2022-09-19 10:30 8.40 37800 134000 (2019) 34800 (1991) 57900 36700 37800 40100 41100 49600 69800 76100 87700 102000
2022-09-19 09:30 8.40 37800 134000 (2019) 34800 (1991) 57900 36700 37800 40100 41100 49600 69800 76100 87700 102000
2022-09-19 08:30 8.38 37700 134000 (2019) 34800 (1991) 57900 36700 37800 40100 41100 49600 69800 76100 87700 102000
2022-09-19 07:30 8.38 37700 134000 (2019) 34800 (1991) 57900 36700 37800 40100 41100 49600 69800 76100 87700 102000
2022-09-19 06:30 8.38 37700 134000 (2019) 34800 (1991) 57900 36700 37800 40100 41100 49600 69800 76100 87700 102000
2022-09-19 05:30 8.38 37700 134000 (2019) 34800 (1991) 57900 36700 37800 40100 41100 49600 69800 76100 87700 102000
2022-09-19 04:30 8.38 37700 134000 (2019) 34800 (1991) 57900 36700 37800 40100 41100 49600 69800 76100 87700 102000
2022-09-19 03:30 8.38 37700 134000 (2019) 34800 (1991) 57900 36700 37800 40100 41100 49600 69800 76100 87700 102000
2022-09-19 02:30 8.38 37700 134000 (2019) 34800 (1991) 57900 36700 37800 40100 41100 49600 69800 76100 87700 102000
2022-09-19 01:30 8.38 37700 134000 (2019) 34800 (1991) 57900 36700 37800 40100 41100 49600 69800 76100 87700 102000
2022-09-19 00:30 8.38 37700 134000 (2019) 34800 (1991) 57900 36700 37800 40100 41100 49600 69800 76100 87700 102000
2022-09-18 23:30 8.36 37600 133000 (2019) 35600 (1959) 57600 36500 37400 39800 40200 50400 71500 75000 88400 95100
2022-09-18 22:30 8.35 37600 133000 (2019) 35600 (1959) 57600 36500 37400 39800 40200 50400 71500 75000 88400 95100
2022-09-18 21:30 8.35 37600 133000 (2019) 35600 (1959) 57600 36500 37400 39800 40200 50400 71500 75000 88400 95100
2022-09-18 20:30 8.35 37600 133000 (2019) 35600 (1959) 57600 36500 37400 39800 40200 50400 71500 75000 88400 95100
2022-09-18 19:30 8.34 37500 133000 (2019) 35600 (1959) 57600 36500 37400 39800 40200 50400 71500 75000 88400 95100
2022-09-18 18:30 8.35 37600 133000 (2019) 35600 (1959) 57600 36500 37400 39800 40200 50400 71500 75000 88400 95100
2022-09-18 17:30 8.36 37600 133000 (2019) 35600 (1959) 57600 36500 37400 39800 40200 50400 71500 75000 88400 95100
2022-09-18 16:30 8.34 37500 133000 (2019) 35600 (1959) 57600 36500 37400 39800 40200 50400 71500 75000 88400 95100
2022-09-18 15:30 8.35 37600 133000 (2019) 35600 (1959) 57600 36500 37400 39800 40200 50400 71500 75000 88400 95100
2022-09-18 14:30 8.34 37500 133000 (2019) 35600 (1959) 57600 36500 37400 39800 40200 50400 71500 75000 88400 95100
2022-09-18 13:30 8.32 37500 133000 (2019) 35600 (1959) 57600 36500 37400 39800 40200 50400 71500 75000 88400 95100
2022-09-18 12:30 8.32 37500 133000 (2019) 35600 (1959) 57600 36500 37400 39800 40200 50400 71500 75000 88400 95100
2022-09-18 11:30 8.32 37500 133000 (2019) 35600 (1959) 57600 36500 37400 39800 40200 50400 71500 75000 88400 95100
2022-09-18 10:30 8.31 37400 133000 (2019) 35600 (1959) 57600 36500 37400 39800 40200 50400 71500 75000 88400 95100
2022-09-18 09:30 8.33 37500 133000 (2019) 35600 (1959) 57600 36500 37400 39800 40200 50400 71500 75000 88400 95100
2022-09-18 08:30 8.30 37400 133000 (2019) 35600 (1959) 57600 36500 37400 39800 40200 50400 71500 75000 88400 95100
2022-09-18 07:30 8.29 37300 133000 (2019) 35600 (1959) 57600 36500 37400 39800 40200 50400 71500 75000 88400 95100
2022-09-18 06:30 8.30 37400 133000 (2019) 35600 (1959) 57600 36500 37400 39800 40200 50400 71500 75000 88400 95100
2022-09-18 05:30 8.26 37200 133000 (2019) 35600 (1959) 57600 36500 37400 39800 40200 50400 71500 75000 88400 95100
2022-09-18 04:30 8.26 37200 133000 (2019) 35600 (1959) 57600 36500 37400 39800 40200 50400 71500 75000 88400 95100
2022-09-18 03:30 8.26 37200 133000 (2019) 35600 (1959) 57600 36500 37400 39800 40200 50400 71500 75000 88400 95100
2022-09-18 02:30 8.24 37100 133000 (2019) 35600 (1959) 57600 36500 37400 39800 40200 50400 71500 75000 88400 95100
2022-09-18 01:30 8.23 37000 133000 (2019) 35600 (1959) 57600 36500 37400 39800 40200 50400 71500 75000 88400 95100
2022-09-18 00:30 8.23 37000 133000 (2019) 35600 (1959) 57600 36500 37400 39800 40200 50400 71500 75000 88400 95100

A total of 189 rows are displayed for years 1958 through 2021.